createdAt,value
2023-04-19T00:00:08.755Z,6
2023-04-19T00:01:22.853Z,5
2023-04-19T00:03:51.300Z,6
2023-04-19T00:05:05.465Z,6
2023-04-19T00:06:19.418Z,5
2023-04-19T00:08:47.705Z,6
2023-04-19T00:10:01.829Z,5
2023-04-19T00:11:15.973Z,5
2023-04-19T00:13:44.157Z,6
2023-04-19T00:14:58.393Z,6
2023-04-19T00:16:12.529Z,5
2023-04-19T00:18:40.721Z,6
2023-04-19T00:19:54.806Z,7
2023-04-19T00:21:08.968Z,5
2023-04-19T00:22:23.105Z,5
2023-04-19T00:24:51.336Z,5
2023-04-19T00:26:05.557Z,6
2023-04-19T00:27:19.710Z,6
2023-04-19T00:29:47.932Z,7
2023-04-19T00:31:02.060Z,6
2023-04-19T00:32:16.206Z,5
2023-04-19T00:34:44.477Z,5
2023-04-19T00:35:58.643Z,5
2023-04-19T00:37:12.747Z,5
2023-04-19T00:39:40.920Z,6
2023-04-19T00:40:55.251Z,5
2023-04-19T00:42:09.209Z,6
2023-04-19T00:43:23.484Z,8
2023-04-19T00:45:51.604Z,6
2023-04-19T00:47:05.762Z,7
2023-04-19T00:48:19.925Z,5
2023-04-19T00:50:48.176Z,7
2023-04-19T00:52:02.369Z,6
2023-04-19T00:53:16.456Z,6
2023-04-19T00:55:44.732Z,6
2023-04-19T00:56:58.863Z,7
2023-04-19T00:58:13.015Z,7
2023-04-19T01:00:41.182Z,6
2023-04-19T01:01:55.521Z,7
2023-04-19T01:03:09.656Z,7
2023-04-19T01:04:23.703Z,7
2023-04-19T01:06:51.862Z,7
2023-04-19T01:08:06.097Z,6
2023-04-19T01:09:20.136Z,7
2023-04-19T01:11:48.421Z,8
2023-04-19T01:13:02.564Z,7
2023-04-19T01:14:16.830Z,7
2023-04-19T01:16:44.972Z,8
2023-04-19T01:17:59.200Z,8
2023-04-19T01:19:13.234Z,8
2023-04-19T01:21:41.448Z,9
2023-04-19T01:22:55.599Z,9
2023-04-19T01:24:09.829Z,8
2023-04-19T01:25:23.930Z,8
2023-04-19T01:27:52.131Z,8
2023-04-19T01:29:06.323Z,8
2023-04-19T01:30:20.370Z,10
2023-04-19T01:32:48.835Z,10
2023-04-19T01:34:02.877Z,10
2023-04-19T01:35:16.923Z,10
2023-04-19T01:37:45.331Z,9
2023-04-19T01:38:59.423Z,10
2023-04-19T01:40:13.470Z,10
2023-04-19T01:42:41.755Z,10
2023-04-19T01:43:55.874Z,9
2023-04-19T01:45:09.994Z,10
2023-04-19T01:47:38.341Z,9
2023-04-19T01:48:52.461Z,10
2023-04-19T01:50:06.563Z,11
2023-04-19T01:51:20.633Z,11
2023-04-19T01:53:48.957Z,12
2023-04-19T01:55:03.110Z,10
2023-04-19T01:56:17.210Z,10
2023-04-19T01:58:45.546Z,11
2023-04-19T01:59:59.695Z,10
2023-04-19T02:01:13.855Z,11
2023-04-19T02:03:42.299Z,11
2023-04-19T02:04:56.125Z,11
2023-04-19T02:06:10.232Z,10
2023-04-19T02:08:38.554Z,10
2023-04-19T02:09:52.833Z,10
2023-04-19T02:11:06.799Z,9
2023-04-19T02:12:21.198Z,11
2023-04-19T02:14:49.290Z,11
2023-04-19T02:16:03.377Z,9
2023-04-19T02:17:17.510Z,10
2023-04-19T02:19:45.733Z,9
2023-04-19T02:20:59.897Z,9
2023-04-19T02:22:14.006Z,10
2023-04-19T02:24:42.238Z,9
2023-04-19T02:25:56.414Z,11
2023-04-19T02:27:10.516Z,10
2023-04-19T02:28:25.074Z,11
2023-04-19T02:30:52.909Z,9
2023-04-19T02:32:07.239Z,13
2023-04-19T02:33:21.364Z,10
2023-04-19T02:35:49.468Z,11
2023-04-19T02:37:03.713Z,11
2023-04-19T02:38:17.836Z,10
2023-04-19T02:40:45.993Z,10
2023-04-19T02:42:00.132Z,9
2023-04-19T02:43:14.277Z,10
2023-04-19T02:45:42.572Z,10
2023-04-19T02:46:56.652Z,9
2023-04-19T02:48:10.781Z,8
2023-04-19T02:50:39.131Z,9
2023-04-19T02:51:53.183Z,9
2023-04-19T02:53:07.387Z,8
2023-04-19T02:54:21.422Z,11
2023-04-19T02:56:49.729Z,9
2023-04-19T02:58:03.947Z,8
2023-04-19T02:59:18.078Z,9
2023-04-19T03:00:32.129Z,10
2023-04-19T03:01:46.297Z,9
2023-04-19T03:03:00.448Z,9
2023-04-19T03:04:14.896Z,9
2023-04-19T03:06:42.794Z,8
2023-04-19T03:07:56.889Z,10
2023-04-19T03:09:11.033Z,8
2023-04-19T03:11:39.331Z,10
2023-04-19T03:12:53.487Z,8
2023-04-19T03:14:07.602Z,9
2023-04-19T03:15:21.735Z,9
2023-04-19T03:17:50.159Z,9
2023-04-19T03:19:04.123Z,9
2023-04-19T03:20:18.260Z,11
2023-04-19T03:22:46.530Z,11
2023-04-19T03:24:00.606Z,9
2023-04-19T03:25:14.854Z,11
2023-04-19T03:27:43.139Z,10
2023-04-19T03:28:57.177Z,10
2023-04-19T03:30:11.294Z,10
2023-04-19T03:31:25.666Z,9
2023-04-19T03:32:39.607Z,10
2023-04-19T03:33:53.706Z,10
2023-04-19T03:35:07.914Z,9
2023-04-19T03:36:22.023Z,11
2023-04-19T03:38:50.233Z,10
2023-04-19T03:40:04.471Z,11
2023-04-19T03:41:18.626Z,10
2023-04-19T03:43:46.785Z,9
2023-04-19T03:45:00.893Z,12
2023-04-19T03:46:15.071Z,10
2023-04-19T03:48:43.317Z,12
2023-04-19T03:49:57.539Z,11
2023-04-19T03:51:11.544Z,11
2023-04-19T03:53:39.855Z,10
2023-04-19T03:54:53.993Z,10
2023-04-19T03:56:08.170Z,10
2023-04-19T03:57:22.286Z,9
2023-04-19T03:59:50.475Z,10
2023-04-19T04:01:05.039Z,9
2023-04-19T04:02:18.967Z,10
2023-04-19T04:04:47.213Z,11
2023-04-19T04:06:01.140Z,10
2023-04-19T04:07:15.385Z,10
2023-04-19T04:09:43.676Z,8
2023-04-19T04:10:57.704Z,9
2023-04-19T04:12:11.815Z,10
2023-04-19T04:14:40.094Z,10
2023-04-19T04:15:54.243Z,12
2023-04-19T04:17:08.401Z,9
2023-04-19T04:18:22.507Z,10
2023-04-19T04:20:50.742Z,9
2023-04-19T04:22:04.953Z,10
2023-04-19T04:23:19.018Z,10
2023-04-19T04:25:47.380Z,10
2023-04-19T04:27:01.501Z,10
2023-04-19T04:28:15.639Z,11
2023-04-19T04:30:43.814Z,12
2023-04-19T04:31:58.097Z,11
2023-04-19T04:33:12.162Z,11
2023-04-19T04:35:40.357Z,13
2023-04-19T04:36:54.519Z,11
2023-04-19T04:38:21.411Z,14
2023-04-19T04:39:22.781Z,10
2023-04-19T04:41:51.027Z,11
2023-04-19T04:43:05.206Z,11
2023-04-19T04:44:19.331Z,11
2023-04-19T04:46:47.566Z,10
2023-04-19T04:48:01.789Z,10
2023-04-19T04:49:15.830Z,12
2023-04-19T04:51:44.131Z,11
2023-04-19T04:52:58.320Z,11
2023-04-19T04:54:12.886Z,11
2023-04-19T04:56:40.632Z,12
2023-04-19T04:57:54.867Z,11
2023-04-19T04:59:08.943Z,10
2023-04-19T05:00:23.039Z,11
2023-04-19T05:02:51.357Z,11
2023-04-19T05:04:05.479Z,11
2023-04-19T05:05:19.560Z,12
2023-04-19T05:07:47.891Z,12
2023-04-19T05:09:01.975Z,12
2023-04-19T05:10:16.239Z,11
2023-04-19T05:12:44.367Z,12
2023-04-19T05:13:58.523Z,10
2023-04-19T05:15:12.625Z,12
2023-04-19T05:17:40.937Z,11
2023-04-19T05:18:55.098Z,12
2023-04-19T05:20:09.255Z,12
2023-04-19T05:21:23.381Z,11
2023-04-19T05:23:51.556Z,10
2023-04-19T05:25:05.789Z,12
2023-04-19T05:26:19.850Z,11
2023-04-19T05:28:48.115Z,11
2023-04-19T05:30:02.280Z,11
2023-04-19T05:31:16.418Z,11
2023-04-19T05:33:44.646Z,13
2023-04-19T05:34:58.786Z,12
2023-04-19T05:36:13.055Z,12
2023-04-19T05:38:41.151Z,13
2023-04-19T05:39:55.382Z,12
2023-04-19T05:41:09.567Z,13
2023-04-19T05:42:23.648Z,13
2023-04-19T05:44:51.827Z,12
2023-04-19T05:46:06.176Z,11
2023-04-19T05:47:20.122Z,12
2023-04-19T05:49:48.414Z,10
2023-04-19T05:51:02.492Z,12
2023-04-19T05:52:16.682Z,12
2023-04-19T05:54:45.071Z,13
2023-04-19T05:55:59.086Z,13
2023-04-19T05:57:13.204Z,11
2023-04-19T05:59:41.443Z,12
2023-04-19T06:00:55.676Z,11
2023-04-19T06:02:09.766Z,11
2023-04-19T06:03:24.521Z,11
2023-04-19T06:05:52.139Z,13
2023-04-19T06:07:13.550Z,14
2023-04-19T06:08:20.344Z,10
2023-04-19T06:10:54.103Z,12
2023-04-19T06:12:02.871Z,12
2023-04-19T06:13:17.006Z,9
2023-04-19T06:15:45.167Z,11
2023-04-19T06:16:59.286Z,11
2023-04-19T06:18:18.959Z,12
2023-04-19T06:20:41.667Z,11
2023-04-19T06:21:55.854Z,12
2023-04-19T06:23:09.974Z,12
2023-04-19T06:24:24.336Z,12
2023-04-19T06:26:52.545Z,13
2023-04-19T06:28:06.552Z,11
2023-04-19T06:29:20.629Z,12
2023-04-19T06:31:48.961Z,10
2023-04-19T06:33:03.169Z,10
2023-04-19T06:34:17.471Z,11
2023-04-19T06:36:45.494Z,11
2023-04-19T06:37:59.563Z,10
2023-04-19T06:39:13.765Z,11
2023-04-19T06:41:41.977Z,9
2023-04-19T06:42:56.102Z,10
2023-04-19T06:44:10.248Z,10
2023-04-19T06:45:24.530Z,11
2023-04-19T06:47:52.695Z,10
2023-04-19T06:49:06.769Z,10
2023-04-19T06:50:20.874Z,10
2023-04-19T06:52:49.169Z,12
2023-04-19T06:54:03.294Z,9
2023-04-19T06:55:17.418Z,10
2023-04-19T06:57:45.748Z,12
2023-04-19T06:58:59.815Z,8
2023-04-19T07:00:14.025Z,10
2023-04-19T07:02:42.380Z,9
2023-04-19T07:03:57.661Z,13
2023-04-19T07:05:10.458Z,9
2023-04-19T07:06:24.599Z,9
2023-04-19T07:08:52.975Z,10
2023-04-19T07:10:07.112Z,9
2023-04-19T07:11:22.432Z,9
2023-04-19T07:13:49.424Z,10
2023-04-19T07:15:03.566Z,9
2023-04-19T07:16:17.729Z,10
2023-04-19T07:18:45.947Z,11
2023-04-19T07:20:00.153Z,10
2023-04-19T07:21:14.586Z,8
2023-04-19T07:23:42.510Z,8
2023-04-19T07:24:56.627Z,8
2023-04-19T07:26:10.742Z,11
2023-04-19T07:28:39.010Z,10
2023-04-19T07:29:53.220Z,11
2023-04-19T07:31:07.365Z,8
2023-04-19T07:32:21.481Z,8
2023-04-19T07:34:49.681Z,10
2023-04-19T07:36:03.899Z,8
2023-04-19T07:37:17.949Z,9
2023-04-19T07:39:46.329Z,9
2023-04-19T07:41:00.307Z,9
2023-04-19T07:42:14.518Z,9
2023-04-19T07:44:42.754Z,8
2023-04-19T07:45:56.935Z,10
2023-04-19T07:47:11.007Z,8
2023-04-19T07:49:39.313Z,8
2023-04-19T07:50:53.456Z,8
2023-04-19T07:52:07.610Z,7
2023-04-19T07:53:21.670Z,8
2023-04-19T07:55:49.937Z,10
2023-04-19T07:57:04.151Z,7
2023-04-19T07:58:18.462Z,8
2023-04-19T08:00:46.565Z,10
2023-04-19T08:02:00.825Z,7
2023-04-19T08:03:14.934Z,8
2023-04-19T08:05:43.031Z,8
2023-04-19T08:06:57.161Z,7
2023-04-19T08:08:11.264Z,6
2023-04-19T08:09:25.422Z,6
2023-04-19T08:10:39.546Z,7
2023-04-19T08:11:53.663Z,9
2023-04-19T08:13:07.887Z,6
2023-04-19T08:14:34.756Z,5
2023-04-19T08:17:18.507Z,6
2023-04-19T08:18:04.521Z,8
2023-04-19T08:19:18.480Z,6
2023-04-19T08:21:46.789Z,5
2023-04-19T08:23:07.513Z,6
2023-04-19T08:24:15.251Z,5
2023-04-19T08:26:43.381Z,6
2023-04-19T08:27:57.432Z,6
2023-04-19T08:29:11.539Z,8
2023-04-19T08:31:39.871Z,7
2023-04-19T08:32:56.831Z,7
2023-04-19T08:34:08.102Z,8
2023-04-19T08:35:22.334Z,7
2023-04-19T08:37:50.562Z,7
2023-04-19T08:39:10.082Z,7
2023-04-19T08:40:18.759Z,6
2023-04-19T08:42:47.054Z,6
2023-04-19T08:44:01.155Z,7
2023-04-19T08:48:57.688Z,5
2023-04-19T08:52:51.751Z,6
2023-04-19T08:53:54.221Z,6
2023-04-19T08:55:08.428Z,5
2023-04-19T08:56:34.481Z,5
2023-04-19T08:59:00.997Z,4
2023-04-19T09:00:04.969Z,5
2023-04-19T09:01:33.078Z,7
2023-04-19T09:03:58.460Z,7
2023-04-19T09:05:01.769Z,5
2023-04-19T09:06:15.866Z,6
2023-04-19T09:08:43.863Z,5
2023-04-19T09:10:03.023Z,5
2023-04-19T09:11:12.089Z,5
2023-04-19T09:13:40.342Z,6
2023-04-19T09:15:01.879Z,6
2023-04-19T09:16:08.727Z,6
2023-04-19T09:17:22.962Z,5
2023-04-19T09:19:51.018Z,6
2023-04-19T09:21:05.159Z,4
2023-04-19T09:22:19.359Z,6
2023-04-19T09:27:15.958Z,5
2023-04-19T09:29:44.173Z,4
2023-04-19T09:31:06.830Z,6
2023-04-19T09:32:12.547Z,5
2023-04-19T09:33:26.624Z,4
2023-04-19T09:34:40.574Z,5
2023-04-19T09:35:54.765Z,6
2023-04-19T09:37:13.452Z,6
2023-04-19T09:38:23.215Z,6
2023-04-19T09:40:51.280Z,6
2023-04-19T09:42:05.467Z,4
2023-04-19T09:45:47.872Z,5
2023-04-19T09:47:02.113Z,5
2023-04-19T09:48:16.103Z,6
2023-04-19T09:50:54.822Z,7
2023-04-19T09:51:58.586Z,6
2023-04-19T09:53:12.621Z,5
2023-04-19T09:55:48.850Z,6
2023-04-19T09:56:57.898Z,5
2023-04-19T09:58:09.274Z,5
2023-04-19T09:59:23.594Z,5
2023-04-19T10:01:51.750Z,5
2023-04-19T10:03:05.748Z,6
2023-04-19T10:07:13.920Z,5
2023-04-19T10:08:02.342Z,5
2023-04-19T10:09:16.592Z,5
2023-04-19T10:11:46.923Z,6
2023-04-19T10:13:16.093Z,6
2023-04-19T10:14:12.976Z,5
2023-04-19T10:16:41.215Z,4
2023-04-19T10:17:55.410Z,6
2023-04-19T10:19:13.153Z,5
2023-04-19T10:20:23.581Z,5
2023-04-19T10:22:51.865Z,4
2023-04-19T10:24:05.979Z,5
2023-04-19T10:25:20.113Z,4
2023-04-19T10:27:48.462Z,6
2023-04-19T10:29:02.608Z,6
2023-04-19T10:30:16.660Z,6
2023-04-19T10:32:44.938Z,6
2023-04-19T10:33:59.058Z,6
2023-04-19T10:35:14.598Z,5
2023-04-19T10:37:41.413Z,4
2023-04-19T10:38:55.710Z,5
2023-04-19T10:40:09.728Z,5
2023-04-19T10:41:23.978Z,5
2023-04-19T10:43:52.157Z,6
2023-04-19T10:45:06.238Z,7
2023-04-19T10:46:20.371Z,3
2023-04-19T10:48:48.638Z,4
2023-04-19T10:50:02.842Z,4
2023-04-19T10:51:17.001Z,4
2023-04-19T10:53:45.151Z,3
2023-04-19T10:54:59.393Z,3
2023-04-19T10:56:13.586Z,3
2023-04-19T10:58:41.678Z,4
2023-04-19T10:59:55.837Z,3
2023-04-19T11:01:10.000Z,3
2023-04-19T11:02:24.433Z,2
2023-04-19T11:04:52.348Z,3
2023-04-19T11:06:06.510Z,4
2023-04-19T11:07:20.630Z,3
2023-04-19T11:09:48.913Z,3
2023-04-19T11:11:03.082Z,3
2023-04-19T11:12:17.252Z,4
2023-04-19T11:14:45.436Z,6
2023-04-19T11:15:59.611Z,5
2023-04-19T11:17:13.784Z,5
2023-04-19T11:19:42.039Z,4
2023-04-19T11:20:56.182Z,5
2023-04-19T11:22:10.230Z,4
2023-04-19T11:23:24.474Z,5
2023-04-19T11:25:52.736Z,4
2023-04-19T11:27:06.891Z,4
2023-04-19T11:28:20.875Z,5
2023-04-19T11:30:49.180Z,3
2023-04-19T11:32:03.362Z,4
2023-04-19T11:33:17.471Z,5
2023-04-19T11:35:45.737Z,4
2023-04-19T11:36:59.867Z,5
2023-04-19T11:38:13.999Z,3
2023-04-19T11:40:42.287Z,3
2023-04-19T11:41:56.447Z,4
2023-04-19T11:43:10.488Z,5
2023-04-19T11:45:40.081Z,3
2023-04-19T11:46:53.042Z,3
2023-04-19T11:48:07.831Z,3
2023-04-19T11:49:21.146Z,4
2023-04-19T11:51:49.472Z,6
2023-04-19T11:53:03.570Z,4
2023-04-19T11:54:18.182Z,3
2023-04-19T11:56:46.012Z,4
2023-04-19T11:58:00.114Z,3
2023-04-19T11:59:14.289Z,4
2023-04-19T12:01:42.574Z,2
2023-04-19T12:02:56.808Z,3
2023-04-19T12:04:10.842Z,4
2023-04-19T12:06:39.063Z,2
2023-04-19T12:07:53.178Z,2
2023-04-19T12:09:07.396Z,3
2023-04-19T12:10:21.402Z,4
2023-04-19T12:12:49.715Z,4
2023-04-19T12:14:03.922Z,4
2023-04-19T12:15:18.059Z,4
2023-04-19T12:17:56.847Z,3
2023-04-19T12:19:00.346Z,5
2023-04-19T12:20:14.509Z,5
2023-04-19T12:22:42.904Z,3
2023-04-19T12:23:56.969Z,5
2023-04-19T12:25:11.023Z,3
2023-04-19T12:27:39.312Z,2
2023-04-19T12:28:53.464Z,3
2023-04-19T12:30:07.619Z,3
2023-04-19T12:31:21.893Z,5
2023-04-19T12:33:49.982Z,2
2023-04-19T12:35:04.151Z,2
2023-04-19T12:36:18.334Z,3
2023-04-19T12:38:46.526Z,3
2023-04-19T12:40:00.644Z,4
2023-04-19T12:41:14.783Z,3
2023-04-19T12:43:43.029Z,2
2023-04-19T12:44:57.171Z,3
2023-04-19T12:46:11.345Z,2
2023-04-19T12:47:25.554Z,2
2023-04-19T12:48:39.557Z,3
2023-04-19T12:49:53.824Z,4
2023-04-19T12:51:07.949Z,2
2023-04-19T12:52:21.943Z,2
2023-04-19T12:54:50.227Z,2
2023-04-19T12:56:04.402Z,3
2023-04-19T12:57:18.542Z,2
2023-04-19T12:59:46.816Z,2
2023-04-19T13:01:00.915Z,3
2023-04-19T13:02:15.115Z,3
2023-04-19T13:04:43.505Z,2
2023-04-19T13:05:57.439Z,2
2023-04-19T13:07:11.570Z,3
2023-04-19T13:09:39.852Z,2
2023-04-19T13:10:54.080Z,2
2023-04-19T13:12:08.125Z,5
2023-04-19T13:13:22.318Z,2
2023-04-19T13:15:50.516Z,3
2023-04-19T13:17:04.778Z,6
2023-04-19T13:18:18.776Z,3
2023-04-19T13:20:47.045Z,4
2023-04-19T13:22:01.213Z,2
2023-04-19T13:23:15.285Z,2
2023-04-19T13:25:43.582Z,3
2023-04-19T13:26:57.820Z,3
2023-04-19T13:28:11.841Z,2
2023-04-19T13:30:40.158Z,2
2023-04-19T13:31:54.251Z,3
2023-04-19T13:33:09.009Z,2
2023-04-19T13:34:22.580Z,2
2023-04-19T13:36:50.761Z,3
2023-04-19T13:38:04.978Z,2
2023-04-19T13:39:19.129Z,3
2023-04-19T13:41:47.407Z,2
2023-04-19T13:43:01.533Z,4
2023-04-19T13:44:15.922Z,1
2023-04-19T13:46:44.013Z,4
2023-04-19T13:47:57.999Z,3
2023-04-19T13:49:12.120Z,3
2023-04-19T13:51:49.593Z,2
2023-04-19T13:52:54.530Z,2
2023-04-19T13:54:08.644Z,2
2023-04-19T13:55:22.831Z,4
2023-04-19T13:57:51.042Z,3
2023-04-19T13:59:05.255Z,2
2023-04-19T14:00:19.315Z,3
2023-04-19T14:02:48.920Z,2
2023-04-19T14:04:01.960Z,2
2023-04-19T14:05:15.926Z,3
2023-04-19T14:07:44.137Z,2
2023-04-19T14:08:58.234Z,5
2023-04-19T14:10:12.384Z,3
2023-04-19T14:11:26.620Z,2
2023-04-19T14:12:40.618Z,3
2023-04-19T14:13:54.780Z,3
2023-04-19T14:15:08.936Z,1
2023-04-19T14:16:23.069Z,3
2023-04-19T14:18:51.296Z,2
2023-04-19T14:20:07.224Z,2
2023-04-19T14:21:19.596Z,2
2023-04-19T14:23:47.896Z,4
2023-04-19T14:25:02.029Z,2
2023-04-19T14:26:16.189Z,2
2023-04-19T14:28:44.400Z,2
2023-04-19T14:29:58.536Z,2
2023-04-19T14:31:12.666Z,3
2023-04-19T14:33:40.893Z,2
2023-04-19T14:34:55.147Z,4
2023-04-19T14:36:09.263Z,3
2023-04-19T14:37:23.421Z,3
2023-04-19T14:39:51.573Z,4
2023-04-19T14:41:05.807Z,3
2023-04-19T14:42:22.321Z,2
2023-04-19T14:44:48.132Z,3
2023-04-19T14:46:02.300Z,9
2023-04-19T14:47:16.427Z,9
2023-04-19T14:49:44.699Z,3
2023-04-19T14:50:58.812Z,4
2023-04-19T14:52:12.935Z,4
2023-04-19T14:54:41.175Z,2
2023-04-19T14:55:55.416Z,2
2023-04-19T14:57:09.448Z,3
2023-04-19T14:58:23.667Z,4
2023-04-19T15:00:51.818Z,2
2023-04-19T15:02:06.129Z,3
2023-04-19T15:03:20.345Z,2
2023-04-19T15:05:48.504Z,5
2023-04-19T15:07:02.638Z,3
2023-04-19T15:08:29.711Z,3
2023-04-19T15:10:44.915Z,3
2023-04-19T15:11:59.080Z,3
2023-04-19T15:13:13.199Z,2
2023-04-19T15:15:41.506Z,3
2023-04-19T15:16:55.622Z,3
2023-04-19T15:18:09.815Z,6
2023-04-19T15:19:23.889Z,4
2023-04-19T15:21:52.147Z,3
2023-04-19T15:23:06.308Z,2
2023-04-19T15:24:20.424Z,3
2023-04-19T15:26:48.716Z,5
2023-04-19T15:28:02.882Z,3
2023-04-19T15:29:17.228Z,4
2023-04-19T15:31:45.369Z,3
2023-04-19T15:32:59.351Z,4
2023-04-19T15:34:13.452Z,3
2023-04-19T15:36:41.832Z,4
2023-04-19T15:37:55.965Z,3
2023-04-19T15:39:09.983Z,4
2023-04-19T15:40:24.231Z,4
2023-04-19T15:42:52.417Z,3
2023-04-19T15:44:06.586Z,4
2023-04-19T15:45:20.638Z,3
2023-04-19T15:47:48.981Z,4
2023-04-19T15:49:03.043Z,3
2023-04-19T15:50:17.236Z,2
2023-04-19T15:52:45.517Z,4
2023-04-19T15:53:59.589Z,4
2023-04-19T15:55:13.757Z,2
2023-04-19T15:57:42.095Z,2
2023-04-19T15:58:56.127Z,3
2023-04-19T16:00:10.255Z,4
2023-04-19T16:02:38.791Z,2
2023-04-19T16:03:53.023Z,3
2023-04-19T16:05:06.889Z,3
2023-04-19T16:06:21.167Z,2
2023-04-19T16:08:49.198Z,3
2023-04-19T16:10:03.343Z,7
2023-04-19T16:11:17.619Z,3
2023-04-19T16:13:45.752Z,5
2023-04-19T16:14:59.852Z,3
2023-04-19T16:16:14.103Z,4
2023-04-19T16:18:42.287Z,3
2023-04-19T16:19:56.421Z,2
2023-04-19T16:21:10.530Z,4
2023-04-19T16:22:24.747Z,4
2023-04-19T16:24:52.959Z,3
2023-04-19T16:26:07.146Z,4
2023-04-19T16:27:21.212Z,3
2023-04-19T16:29:49.484Z,2
2023-04-19T16:31:03.689Z,3
2023-04-19T16:32:17.890Z,4
2023-04-19T16:34:46.011Z,3
2023-04-19T16:36:00.181Z,4
2023-04-19T16:37:14.280Z,2
2023-04-19T16:39:42.560Z,2
2023-04-19T16:40:56.712Z,2
2023-04-19T16:42:10.792Z,2
2023-04-19T16:44:39.362Z,3
2023-04-19T16:45:53.280Z,3
2023-04-19T16:47:07.387Z,4
2023-04-19T16:48:21.540Z,5
2023-04-19T16:50:49.787Z,3
2023-04-19T16:52:03.932Z,4
2023-04-19T16:53:18.007Z,3
2023-04-19T16:55:46.290Z,4
2023-04-19T16:57:00.418Z,4
2023-04-19T16:58:14.667Z,3
2023-04-19T17:00:42.902Z,2
2023-04-19T17:02:00.443Z,2
2023-04-19T17:03:11.248Z,2
2023-04-19T17:05:39.389Z,3
2023-04-19T17:06:53.592Z,2
2023-04-19T17:08:07.730Z,2
2023-04-19T17:09:21.866Z,5
2023-04-19T17:11:50.021Z,3
2023-04-19T17:13:04.467Z,3
2023-04-19T17:14:18.729Z,2
2023-04-19T17:16:46.892Z,5
2023-04-19T17:18:00.989Z,4
2023-04-19T17:19:15.713Z,4
2023-04-19T17:21:43.961Z,3
2023-04-19T17:22:57.627Z,4
2023-04-19T17:24:11.920Z,3
2023-04-19T17:25:26.031Z,2
2023-04-19T17:26:39.853Z,2
2023-04-19T17:27:54.026Z,4
2023-04-19T17:29:08.268Z,5
2023-04-19T17:30:22.255Z,3
2023-04-19T17:32:50.630Z,3
2023-04-19T17:34:04.657Z,2
2023-04-19T17:35:18.779Z,4
2023-04-19T17:37:47.206Z,3
2023-04-19T17:39:01.166Z,3
2023-04-19T17:40:15.490Z,3
2023-04-19T17:42:44.092Z,4
2023-04-19T17:43:57.824Z,3
2023-04-19T17:45:11.925Z,3
2023-04-19T17:47:40.240Z,3
2023-04-19T17:48:54.240Z,3
2023-04-19T17:50:08.538Z,4
2023-04-19T17:51:22.711Z,4
2023-04-19T17:53:50.821Z,3
2023-04-19T17:55:05.213Z,4
2023-04-19T17:56:19.087Z,3
2023-04-19T17:58:47.382Z,3
2023-04-19T18:00:01.518Z,3
2023-04-19T18:01:15.863Z,3
2023-04-19T18:03:43.981Z,4
2023-04-19T18:04:58.133Z,4
2023-04-19T18:06:12.205Z,6
2023-04-19T18:08:40.482Z,3
2023-04-19T18:09:54.800Z,3
2023-04-19T18:11:08.910Z,5
2023-04-19T18:12:22.895Z,3
2023-04-19T18:14:51.129Z,4
2023-04-19T18:16:05.216Z,2
2023-04-19T18:17:19.407Z,4
2023-04-19T18:19:47.786Z,4
2023-04-19T18:21:01.865Z,3
2023-04-19T18:22:16.158Z,3
2023-04-19T18:24:44.381Z,3
2023-04-19T18:25:58.418Z,3
2023-04-19T18:27:12.557Z,4
2023-04-19T18:29:40.784Z,2
2023-04-19T18:30:55.112Z,4
2023-04-19T18:32:09.212Z,3
2023-04-19T18:33:23.449Z,2
2023-04-19T18:35:51.416Z,3
2023-04-19T18:37:05.710Z,5
2023-04-19T18:38:19.776Z,4
2023-04-19T18:40:48.072Z,4
2023-04-19T18:42:02.097Z,4
2023-04-19T18:43:16.396Z,4
2023-04-19T18:45:44.660Z,4
2023-04-19T18:46:58.624Z,4
2023-04-19T18:48:12.632Z,4
2023-04-19T18:49:27.300Z,4
2023-04-19T18:50:40.919Z,3
2023-04-19T18:51:55.255Z,5
2023-04-19T18:53:09.088Z,3
2023-04-19T18:54:23.538Z,3
2023-04-19T18:57:19.061Z,4
2023-04-19T18:58:05.942Z,5
2023-04-19T18:59:19.910Z,6
2023-04-19T19:01:48.507Z,4
2023-04-19T19:03:03.916Z,3
2023-04-19T19:06:44.836Z,4
2023-04-19T19:07:59.251Z,4
2023-04-19T19:09:13.077Z,4
2023-04-19T19:12:55.113Z,4
2023-04-19T19:14:09.366Z,4
2023-04-19T19:15:23.458Z,4
2023-04-19T19:17:51.678Z,5
2023-04-19T19:19:05.776Z,4
2023-04-19T19:20:19.895Z,3
2023-04-19T19:22:48.575Z,4
2023-04-19T19:24:02.812Z,4
2023-04-19T19:25:16.450Z,4
2023-04-19T19:28:02.810Z,5
2023-04-19T19:28:59.783Z,4
2023-04-19T19:30:12.979Z,4
2023-04-19T19:32:41.273Z,4
2023-04-19T19:34:13.704Z,5
2023-04-19T19:35:09.580Z,4
2023-04-19T19:36:23.720Z,6
2023-04-19T19:38:51.901Z,4
2023-04-19T19:40:06.569Z,3
2023-04-19T19:43:48.526Z,3
2023-04-19T19:45:02.685Z,5
2023-04-19T19:46:16.841Z,4
2023-04-19T19:48:45.020Z,4
2023-04-19T19:51:47.422Z,5
2023-04-19T19:53:41.508Z,5
2023-04-19T19:54:55.681Z,5
2023-04-19T19:56:18.204Z,4
2023-04-19T19:59:56.248Z,5
2023-04-19T20:01:06.451Z,5
2023-04-19T20:02:21.604Z,4
2023-04-19T20:04:48.958Z,4
2023-04-19T20:06:25.561Z,5
2023-04-19T20:09:45.399Z,7
2023-04-19T20:10:59.373Z,5
2023-04-19T20:12:13.879Z,4
2023-04-19T20:14:41.743Z,4
2023-04-19T20:15:56.091Z,5
2023-04-19T20:17:10.027Z,6
2023-04-19T20:18:24.156Z,4
2023-04-19T20:20:52.461Z,5
2023-04-19T20:22:06.570Z,5
2023-04-19T20:23:20.662Z,5
2023-04-19T20:25:50.946Z,4
2023-04-19T20:27:03.132Z,7
2023-04-19T20:28:17.260Z,4
2023-04-19T20:30:45.577Z,4
2023-04-19T20:31:59.787Z,4
2023-04-19T20:33:13.792Z,6
2023-04-19T20:35:42.054Z,4
2023-04-19T20:36:56.271Z,5
2023-04-19T20:38:10.262Z,5
2023-04-19T20:39:24.513Z,3
2023-04-19T20:41:52.679Z,6
2023-04-19T20:43:06.812Z,4
2023-04-19T20:44:20.934Z,4
2023-04-19T20:46:49.238Z,3
2023-04-19T20:48:03.442Z,5
2023-04-19T20:51:45.795Z,5
2023-04-19T20:52:59.876Z,5
2023-04-19T20:54:14.088Z,3
2023-04-19T20:56:42.301Z,4
2023-04-19T20:57:56.408Z,5
2023-04-19T20:59:10.514Z,5
2023-04-19T21:00:24.722Z,8
2023-04-19T21:02:53.119Z,8
2023-04-19T21:04:07.372Z,6
2023-04-19T21:05:21.212Z,5
2023-04-19T21:07:49.552Z,6
2023-04-19T21:09:03.710Z,5
2023-04-19T21:10:17.750Z,4
2023-04-19T21:12:46.035Z,5
2023-04-19T21:14:00.250Z,4
2023-04-19T21:15:14.361Z,5
2023-04-19T21:17:42.593Z,6
2023-04-19T21:18:56.723Z,6
2023-04-19T21:20:10.790Z,5
2023-04-19T21:22:39.091Z,5
2023-04-19T21:23:53.204Z,4
2023-04-19T21:25:07.411Z,4
2023-04-19T21:26:21.460Z,6
2023-04-19T21:28:49.754Z,5
2023-04-19T21:30:03.896Z,5
2023-04-19T21:31:18.095Z,6
2023-04-19T21:33:46.375Z,6
2023-04-19T21:35:00.396Z,3
2023-04-19T21:36:14.549Z,4
2023-04-19T21:38:42.826Z,5
2023-04-19T21:39:56.944Z,6
2023-04-19T21:41:11.064Z,4
2023-04-19T21:43:39.359Z,8
2023-04-19T21:44:53.478Z,5
2023-04-19T21:46:07.703Z,3
2023-04-19T21:47:21.768Z,5
2023-04-19T21:49:50.060Z,5
2023-04-19T21:51:04.192Z,5
2023-04-19T21:52:18.271Z,5
2023-04-19T21:54:46.623Z,7
2023-04-19T21:56:00.673Z,6
2023-04-19T21:57:14.894Z,7
2023-04-19T21:59:43.168Z,4
2023-04-19T22:00:57.282Z,4
2023-04-19T22:02:11.379Z,6
2023-04-19T22:04:39.711Z,5
2023-04-19T22:05:53.771Z,5
2023-04-19T22:07:07.983Z,5
2023-04-19T22:08:22.112Z,5
2023-04-19T22:10:50.297Z,6
2023-04-19T22:12:04.425Z,6
2023-04-19T22:13:18.557Z,4
2023-04-19T22:15:46.866Z,4
2023-04-19T22:17:00.948Z,6
2023-04-19T22:18:15.119Z,11
2023-04-19T22:20:43.409Z,6
2023-04-19T22:21:57.488Z,4
2023-04-19T22:23:11.626Z,4
2023-04-19T22:25:39.957Z,4
2023-04-19T22:26:54.087Z,5
2023-04-19T22:28:08.242Z,6
2023-04-19T22:29:22.282Z,4
2023-04-19T22:31:50.567Z,4
2023-04-19T22:33:04.752Z,5
2023-04-19T22:34:18.915Z,5
2023-04-19T22:36:47.216Z,6
2023-04-19T22:38:01.208Z,6
2023-04-19T22:39:15.633Z,3
2023-04-19T22:41:43.638Z,5
2023-04-19T22:42:57.769Z,6
2023-04-19T22:44:11.876Z,4
2023-04-19T22:46:40.175Z,4
2023-04-19T22:47:54.369Z,6
2023-04-19T22:49:08.415Z,5
2023-04-19T22:50:22.551Z,4
2023-04-19T22:52:50.800Z,4
2023-04-19T22:54:05.028Z,4
2023-04-19T22:55:19.157Z,4
2023-04-19T22:57:47.427Z,5
2023-04-19T22:59:01.460Z,4
2023-04-19T23:00:15.724Z,6
2023-04-19T23:02:43.928Z,6
2023-04-19T23:03:58.110Z,5
2023-04-19T23:05:12.289Z,9
2023-04-19T23:07:40.411Z,6
2023-04-19T23:08:54.552Z,6
2023-04-19T23:10:08.707Z,5
2023-04-19T23:11:22.849Z,6
2023-04-19T23:13:51.087Z,7
2023-04-19T23:15:05.269Z,7
2023-04-19T23:16:19.414Z,5
2023-04-19T23:18:47.634Z,7
2023-04-19T23:20:01.749Z,6
2023-04-19T23:21:15.902Z,5
2023-04-19T23:23:44.158Z,4
2023-04-19T23:24:58.309Z,5
2023-04-19T23:26:12.480Z,5
2023-04-19T23:27:26.671Z,5
2023-04-19T23:28:40.687Z,5
2023-04-19T23:29:54.810Z,5
2023-04-19T23:31:09.100Z,4
2023-04-19T23:32:23.186Z,5
2023-04-19T23:34:51.313Z,6
2023-04-19T23:36:05.589Z,4
2023-04-19T23:37:19.642Z,6
2023-04-19T23:39:47.874Z,5
2023-04-19T23:41:01.985Z,5
2023-04-19T23:42:16.181Z,5
2023-04-19T23:44:44.481Z,5
2023-04-19T23:45:58.619Z,6
2023-04-19T23:47:12.677Z,8
2023-04-19T23:49:40.925Z,7
2023-04-19T23:50:55.086Z,7